sensor_id;sensor_type;location;lat;lon;timestamp;temperature;humidity
19898;DHT22;10111;50.814;4.572;2022-12-18T00:03:50;-5.30;99.90
19898;DHT22;10111;50.814;4.572;2022-12-18T00:06:17;-5.40;99.90
19898;DHT22;10111;50.814;4.572;2022-12-18T00:08:43;-5.50;99.90
19898;DHT22;10111;50.814;4.572;2022-12-18T00:11:14;-5.60;99.90
19898;DHT22;10111;50.814;4.572;2022-12-18T00:13:40;-5.60;99.90
19898;DHT22;10111;50.814;4.572;2022-12-18T00:16:09;-5.60;99.90
19898;DHT22;10111;50.814;4.572;2022-12-18T00:18:35;-5.50;99.90
19898;DHT22;10111;50.814;4.572;2022-12-18T00:21:02;-5.50;99.90
19898;DHT22;10111;50.814;4.572;2022-12-18T00:23:29;-5.60;99.90
19898;DHT22;10111;50.814;4.572;2022-12-18T00:25:58;-5.60;99.90
19898;DHT22;10111;50.814;4.572;2022-12-18T00:28:23;-5.60;99.90
19898;DHT22;10111;50.814;4.572;2022-12-18T00:30:49;-5.70;99.90
19898;DHT22;10111;50.814;4.572;2022-12-18T00:33:17;-5.70;99.90
19898;DHT22;10111;50.814;4.572;2022-12-18T00:35:43;-5.80;99.90
19898;DHT22;10111;50.814;4.572;2022-12-18T00:38:08;-5.80;99.90
19898;DHT22;10111;50.814;4.572;2022-12-18T00:40:34;-5.80;99.90
19898;DHT22;10111;50.814;4.572;2022-12-18T00:42:59;-5.80;99.90
19898;DHT22;10111;50.814;4.572;2022-12-18T00:45:27;-5.80;99.90
19898;DHT22;10111;50.814;4.572;2022-12-18T00:47:53;-5.90;99.90
19898;DHT22;10111;50.814;4.572;2022-12-18T00:50:20;-6.00;99.90
19898;DHT22;10111;50.814;4.572;2022-12-18T00:52:46;-6.10;99.90
19898;DHT22;10111;50.814;4.572;2022-12-18T00:55:12;-6.10;99.90
19898;DHT22;10111;50.814;4.572;2022-12-18T00:57:37;-6.10;99.90
19898;DHT22;10111;50.814;4.572;2022-12-18T01:00:05;-6.10;99.90
19898;DHT22;10111;50.814;4.572;2022-12-18T01:02:31;-6.10;99.90
19898;DHT22;10111;50.814;4.572;2022-12-18T01:04:57;-6.10;99.90
19898;DHT22;10111;50.814;4.572;2022-12-18T01:07:22;-6.10;99.90
19898;DHT22;10111;50.814;4.572;2022-12-18T01:09:48;-6.10;99.90
19898;DHT22;10111;50.814;4.572;2022-12-18T01:12:14;-6.20;99.90
19898;DHT22;10111;50.814;4.572;2022-12-18T01:14:39;-6.20;99.90
19898;DHT22;10111;50.814;4.572;2022-12-18T01:17:05;-6.20;99.90
19898;DHT22;10111;50.814;4.572;2022-12-18T01:19:31;-6.20;99.90
19898;DHT22;10111;50.814;4.572;2022-12-18T01:21:56;-6.20;99.90
19898;DHT22;10111;50.814;4.572;2022-12-18T01:24:23;-6.20;99.90
19898;DHT22;10111;50.814;4.572;2022-12-18T01:26:48;-6.30;99.90
19898;DHT22;10111;50.814;4.572;2022-12-18T01:29:14;-6.20;99.90
19898;DHT22;10111;50.814;4.572;2022-12-18T01:31:39;-6.30;99.90
19898;DHT22;10111;50.814;4.572;2022-12-18T01:34:05;-6.30;99.90
19898;DHT22;10111;50.814;4.572;2022-12-18T01:36:33;-6.30;99.90
19898;DHT22;10111;50.814;4.572;2022-12-18T01:39:00;-6.40;99.90
19898;DHT22;10111;50.814;4.572;2022-12-18T01:41:28;-6.30;99.90
19898;DHT22;10111;50.814;4.572;2022-12-18T01:45:36;-6.20;99.90
19898;DHT22;10111;50.814;4.572;2022-12-18T01:50:15;-6.40;99.90
19898;DHT22;10111;50.814;4.572;2022-12-18T01:52:51;-6.40;99.90
19898;DHT22;10111;50.814;4.572;2022-12-18T01:55:20;-6.40;99.90
19898;DHT22;10111;50.814;4.572;2022-12-18T01:57:46;-6.40;99.90
19898;DHT22;10111;50.814;4.572;2022-12-18T02:00:15;-6.40;99.90
19898;DHT22;10111;50.814;4.572;2022-12-18T02:02:43;-6.40;99.90
19898;DHT22;10111;50.814;4.572;2022-12-18T02:05:11;-6.40;99.90
19898;DHT22;10111;50.814;4.572;2022-12-18T02:10:31;-6.40;99.90
19898;DHT22;10111;50.814;4.572;2022-12-18T02:18:31;-6.50;99.90
19898;DHT22;10111;50.814;4.572;2022-12-18T02:21:12;-6.60;99.90
19898;DHT22;10111;50.814;4.572;2022-12-18T02:26:35;-6.60;99.90
19898;DHT22;10111;50.814;4.572;2022-12-18T02:29:15;-6.60;99.90
19898;DHT22;10111;50.814;4.572;2022-12-18T02:31:47;-6.50;99.90
19898;DHT22;10111;50.814;4.572;2022-12-18T02:34:15;-6.50;99.90
19898;DHT22;10111;50.814;4.572;2022-12-18T02:36:42;-6.50;99.90
19898;DHT22;10111;50.814;4.572;2022-12-18T02:39:11;-6.50;99.90
19898;DHT22;10111;50.814;4.572;2022-12-18T02:41:38;-6.50;99.90
19898;DHT22;10111;50.814;4.572;2022-12-18T02:44:13;-6.60;99.90
19898;DHT22;10111;50.814;4.572;2022-12-18T02:46:50;-6.60;99.90
19898;DHT22;10111;50.814;4.572;2022-12-18T02:49:49;-6.60;99.90
19898;DHT22;10111;50.814;4.572;2022-12-18T03:00:30;-6.60;99.90
19898;DHT22;10111;50.814;4.572;2022-12-18T03:03:02;-6.50;99.90
19898;DHT22;10111;50.814;4.572;2022-12-18T03:05:40;-6.40;99.90
19898;DHT22;10111;50.814;4.572;2022-12-18T03:08:20;-6.50;99.90
19898;DHT22;10111;50.814;4.572;2022-12-18T03:11:13;-6.70;99.90
19898;DHT22;10111;50.814;4.572;2022-12-18T03:13:48;-6.70;99.90
19898;DHT22;10111;50.814;4.572;2022-12-18T03:16:22;-6.70;99.90
19898;DHT22;10111;50.814;4.572;2022-12-18T03:18:55;-6.70;99.90
19898;DHT22;10111;50.814;4.572;2022-12-18T03:21:28;-6.60;99.90
19898;DHT22;10111;50.814;4.572;2022-12-18T03:23:54;-6.70;99.90
19898;DHT22;10111;50.814;4.572;2022-12-18T03:26:24;-6.70;99.90
19898;DHT22;10111;50.814;4.572;2022-12-18T03:29:02;-6.70;99.90
19898;DHT22;10111;50.814;4.572;2022-12-18T03:31:30;-6.60;99.90
19898;DHT22;10111;50.814;4.572;2022-12-18T03:34:03;-6.70;99.90
19898;DHT22;10111;50.814;4.572;2022-12-18T03:36:30;-6.70;99.90
19898;DHT22;10111;50.814;4.572;2022-12-18T03:38:56;-6.80;99.90
19898;DHT22;10111;50.814;4.572;2022-12-18T03:41:29;-6.80;99.90
19898;DHT22;10111;50.814;4.572;2022-12-18T03:47:14;-6.80;99.90
19898;DHT22;10111;50.814;4.572;2022-12-18T03:50:27;-6.80;99.90
19898;DHT22;10111;50.814;4.572;2022-12-18T03:52:42;-6.90;99.90
19898;DHT22;10111;50.814;4.572;2022-12-18T03:55:11;-6.90;99.90
19898;DHT22;10111;50.814;4.572;2022-12-18T03:57:38;-7.00;99.90
19898;DHT22;10111;50.814;4.572;2022-12-18T04:00:10;-7.10;99.90
19898;DHT22;10111;50.814;4.572;2022-12-18T04:02:38;-7.10;99.90
19898;DHT22;10111;50.814;4.572;2022-12-18T04:05:07;-7.10;99.90
19898;DHT22;10111;50.814;4.572;2022-12-18T04:07:34;-7.10;99.90
19898;DHT22;10111;50.814;4.572;2022-12-18T04:10:02;-7.20;99.90
19898;DHT22;10111;50.814;4.572;2022-12-18T04:12:29;-7.20;99.90
19898;DHT22;10111;50.814;4.572;2022-12-18T04:14:55;-7.20;99.90
19898;DHT22;10111;50.814;4.572;2022-12-18T04:17:21;-7.20;99.90
19898;DHT22;10111;50.814;4.572;2022-12-18T04:19:47;-7.20;99.90
19898;DHT22;10111;50.814;4.572;2022-12-18T04:22:13;-7.30;99.90
19898;DHT22;10111;50.814;4.572;2022-12-18T04:24:39;-7.20;99.90
19898;DHT22;10111;50.814;4.572;2022-12-18T04:27:04;-7.20;99.90
19898;DHT22;10111;50.814;4.572;2022-12-18T04:29:30;-7.20;99.90
19898;DHT22;10111;50.814;4.572;2022-12-18T04:31:56;-7.20;99.90
19898;DHT22;10111;50.814;4.572;2022-12-18T04:34:22;-7.20;99.90
19898;DHT22;10111;50.814;4.572;2022-12-18T04:36:48;-7.20;99.90
19898;DHT22;10111;50.814;4.572;2022-12-18T04:39:14;-7.10;99.90
19898;DHT22;10111;50.814;4.572;2022-12-18T04:41:39;-7.10;99.90
19898;DHT22;10111;50.814;4.572;2022-12-18T04:44:05;-7.20;99.90
19898;DHT22;10111;50.814;4.572;2022-12-18T04:46:31;-7.10;99.90
19898;DHT22;10111;50.814;4.572;2022-12-18T04:48:56;-7.10;99.90
19898;DHT22;10111;50.814;4.572;2022-12-18T04:51:22;-7.00;99.90
19898;DHT22;10111;50.814;4.572;2022-12-18T04:53:47;-7.10;99.90
19898;DHT22;10111;50.814;4.572;2022-12-18T04:56:14;-7.00;99.90
19898;DHT22;10111;50.814;4.572;2022-12-18T04:58:42;-7.10;99.90
19898;DHT22;10111;50.814;4.572;2022-12-18T05:01:08;-7.00;99.90
19898;DHT22;10111;50.814;4.572;2022-12-18T05:03:35;-7.00;99.90
19898;DHT22;10111;50.814;4.572;2022-12-18T05:06:01;-7.10;99.90
19898;DHT22;10111;50.814;4.572;2022-12-18T05:08:27;-7.10;99.90
19898;DHT22;10111;50.814;4.572;2022-12-18T05:11:04;-7.10;99.90
19898;DHT22;10111;50.814;4.572;2022-12-18T05:13:33;-7.00;99.90
19898;DHT22;10111;50.814;4.572;2022-12-18T05:16:00;-7.00;99.90
19898;DHT22;10111;50.814;4.572;2022-12-18T05:18:25;-7.00;99.90
19898;DHT22;10111;50.814;4.572;2022-12-18T05:20:53;-7.10;99.90
19898;DHT22;10111;50.814;4.572;2022-12-18T05:23:19;-7.10;99.90
19898;DHT22;10111;50.814;4.572;2022-12-18T05:25:56;-7.10;99.90
19898;DHT22;10111;50.814;4.572;2022-12-18T05:28:23;-7.20;99.90
19898;DHT22;10111;50.814;4.572;2022-12-18T05:30:54;-7.20;99.90
19898;DHT22;10111;50.814;4.572;2022-12-18T05:33:21;-7.30;99.90
19898;DHT22;10111;50.814;4.572;2022-12-18T05:35:55;-7.30;99.90
19898;DHT22;10111;50.814;4.572;2022-12-18T05:38:23;-7.20;99.90
19898;DHT22;10111;50.814;4.572;2022-12-18T05:40:49;-7.10;99.90
19898;DHT22;10111;50.814;4.572;2022-12-18T05:43:15;-7.20;99.90
19898;DHT22;10111;50.814;4.572;2022-12-18T05:45:42;-7.20;99.90
19898;DHT22;10111;50.814;4.572;2022-12-18T05:48:09;-7.30;99.90
19898;DHT22;10111;50.814;4.572;2022-12-18T05:50:36;-7.30;99.90
19898;DHT22;10111;50.814;4.572;2022-12-18T05:53:03;-7.20;99.90
19898;DHT22;10111;50.814;4.572;2022-12-18T05:55:29;-7.20;99.90
19898;DHT22;10111;50.814;4.572;2022-12-18T05:57:54;-7.20;99.90
19898;DHT22;10111;50.814;4.572;2022-12-18T06:00:20;-7.20;99.90
19898;DHT22;10111;50.814;4.572;2022-12-18T06:02:49;-7.20;99.90
19898;DHT22;10111;50.814;4.572;2022-12-18T06:05:14;-7.20;99.90
19898;DHT22;10111;50.814;4.572;2022-12-18T06:07:40;-7.20;99.90
19898;DHT22;10111;50.814;4.572;2022-12-18T06:10:06;-7.20;99.90
19898;DHT22;10111;50.814;4.572;2022-12-18T06:12:32;-7.10;99.90
19898;DHT22;10111;50.814;4.572;2022-12-18T06:14:59;-7.10;99.90
19898;DHT22;10111;50.814;4.572;2022-12-18T06:17:33;-7.10;99.90
19898;DHT22;10111;50.814;4.572;2022-12-18T06:19:59;-7.20;99.90
19898;DHT22;10111;50.814;4.572;2022-12-18T06:22:25;-7.20;99.90
19898;DHT22;10111;50.814;4.572;2022-12-18T06:24:50;-7.20;99.90
19898;DHT22;10111;50.814;4.572;2022-12-18T06:27:16;-7.20;99.90
19898;DHT22;10111;50.814;4.572;2022-12-18T06:29:42;-7.20;99.90
19898;DHT22;10111;50.814;4.572;2022-12-18T06:32:08;-7.20;99.90
19898;DHT22;10111;50.814;4.572;2022-12-18T06:34:36;-7.10;99.90
19898;DHT22;10111;50.814;4.572;2022-12-18T06:37:02;-7.10;99.90
19898;DHT22;10111;50.814;4.572;2022-12-18T06:39:28;-7.10;99.90
19898;DHT22;10111;50.814;4.572;2022-12-18T06:41:53;-7.10;99.90
19898;DHT22;10111;50.814;4.572;2022-12-18T06:44:19;-7.10;99.90
19898;DHT22;10111;50.814;4.572;2022-12-18T06:46:45;-7.20;99.90
19898;DHT22;10111;50.814;4.572;2022-12-18T06:49:10;-7.20;99.90
19898;DHT22;10111;50.814;4.572;2022-12-18T06:51:36;-7.20;99.90
19898;DHT22;10111;50.814;4.572;2022-12-18T06:54:02;-7.10;99.90
19898;DHT22;10111;50.814;4.572;2022-12-18T06:56:28;-7.00;99.90
19898;DHT22;10111;50.814;4.572;2022-12-18T06:58:54;-7.00;99.90
19898;DHT22;10111;50.814;4.572;2022-12-18T07:01:20;-7.10;99.90
19898;DHT22;10111;50.814;4.572;2022-12-18T07:03:46;-7.10;99.90
19898;DHT22;10111;50.814;4.572;2022-12-18T07:06:14;-7.10;99.90
19898;DHT22;10111;50.814;4.572;2022-12-18T07:08:40;-7.10;99.90
19898;DHT22;10111;50.814;4.572;2022-12-18T07:11:06;-7.20;99.90
19898;DHT22;10111;50.814;4.572;2022-12-18T07:13:31;-7.20;99.90
19898;DHT22;10111;50.814;4.572;2022-12-18T07:16:10;-7.20;99.90
19898;DHT22;10111;50.814;4.572;2022-12-18T07:18:36;-7.20;99.90
19898;DHT22;10111;50.814;4.572;2022-12-18T07:21:06;-7.20;99.90
19898;DHT22;10111;50.814;4.572;2022-12-18T07:23:33;-7.10;99.90
19898;DHT22;10111;50.814;4.572;2022-12-18T07:26:19;-7.00;99.90
19898;DHT22;10111;50.814;4.572;2022-12-18T07:28:45;-7.00;99.90
19898;DHT22;10111;50.814;4.572;2022-12-18T07:31:19;-6.90;99.90
19898;DHT22;10111;50.814;4.572;2022-12-18T07:33:45;-6.70;99.90
19898;DHT22;10111;50.814;4.572;2022-12-18T07:36:12;-6.70;99.90
19898;DHT22;10111;50.814;4.572;2022-12-18T07:38:38;-6.70;99.90
19898;DHT22;10111;50.814;4.572;2022-12-18T07:41:12;-6.80;99.90
19898;DHT22;10111;50.814;4.572;2022-12-18T07:43:38;-6.80;99.90
19898;DHT22;10111;50.814;4.572;2022-12-18T07:46:04;-6.80;99.90
19898;DHT22;10111;50.814;4.572;2022-12-18T07:48:31;-6.80;99.90
19898;DHT22;10111;50.814;4.572;2022-12-18T07:51:05;-6.80;99.90
19898;DHT22;10111;50.814;4.572;2022-12-18T07:53:32;-6.70;99.90
19898;DHT22;10111;50.814;4.572;2022-12-18T07:55:59;-6.80;99.90
19898;DHT22;10111;50.814;4.572;2022-12-18T07:58:25;-6.80;99.90
19898;DHT22;10111;50.814;4.572;2022-12-18T08:00:52;-6.70;99.90
19898;DHT22;10111;50.814;4.572;2022-12-18T08:03:18;-6.70;99.90
19898;DHT22;10111;50.814;4.572;2022-12-18T08:05:44;-6.70;99.90
19898;DHT22;10111;50.814;4.572;2022-12-18T08:08:10;-6.70;99.90
19898;DHT22;10111;50.814;4.572;2022-12-18T08:10:35;-6.60;99.90
19898;DHT22;10111;50.814;4.572;2022-12-18T08:13:02;-6.60;99.90
19898;DHT22;10111;50.814;4.572;2022-12-18T08:15:27;-6.60;99.90
19898;DHT22;10111;50.814;4.572;2022-12-18T08:17:56;-6.50;99.90
19898;DHT22;10111;50.814;4.572;2022-12-18T08:20:22;-6.40;99.90
19898;DHT22;10111;50.814;4.572;2022-12-18T08:22:47;-6.30;99.90
19898;DHT22;10111;50.814;4.572;2022-12-18T08:25:13;-6.20;99.90
19898;DHT22;10111;50.814;4.572;2022-12-18T08:27:39;-6.10;99.90
19898;DHT22;10111;50.814;4.572;2022-12-18T08:30:05;-6.00;99.90
19898;DHT22;10111;50.814;4.572;2022-12-18T08:32:31;-5.80;99.90
19898;DHT22;10111;50.814;4.572;2022-12-18T08:34:58;-5.80;99.90
19898;DHT22;10111;50.814;4.572;2022-12-18T08:37:24;-5.60;99.90
19898;DHT22;10111;50.814;4.572;2022-12-18T08:39:49;-5.50;99.90
19898;DHT22;10111;50.814;4.572;2022-12-18T08:42:15;-5.40;99.90
19898;DHT22;10111;50.814;4.572;2022-12-18T08:44:59;-5.20;99.90
19898;DHT22;10111;50.814;4.572;2022-12-18T08:47:25;-4.90;99.90
19898;DHT22;10111;50.814;4.572;2022-12-18T08:49:51;-4.60;99.90
19898;DHT22;10111;50.814;4.572;2022-12-18T08:52:17;-4.30;99.90
19898;DHT22;10111;50.814;4.572;2022-12-18T08:54:43;-4.00;99.90
19898;DHT22;10111;50.814;4.572;2022-12-18T08:57:08;-3.80;99.90
19898;DHT22;10111;50.814;4.572;2022-12-18T08:59:34;-3.60;99.90
19898;DHT22;10111;50.814;4.572;2022-12-18T09:02:00;-3.70;99.90
19898;DHT22;10111;50.814;4.572;2022-12-18T09:04:25;-3.80;99.90
19898;DHT22;10111;50.814;4.572;2022-12-18T09:06:51;-3.70;99.90
19898;DHT22;10111;50.814;4.572;2022-12-18T09:09:17;-3.70;99.90
19898;DHT22;10111;50.814;4.572;2022-12-18T09:11:42;-3.50;99.90
19898;DHT22;10111;50.814;4.572;2022-12-18T09:14:09;-3.30;99.90
19898;DHT22;10111;50.814;4.572;2022-12-18T09:16:35;-3.10;99.90
19898;DHT22;10111;50.814;4.572;2022-12-18T09:19:01;-3.00;99.90
19898;DHT22;10111;50.814;4.572;2022-12-18T09:21:33;-2.90;99.90
19898;DHT22;10111;50.814;4.572;2022-12-18T09:23:59;-2.80;99.90
19898;DHT22;10111;50.814;4.572;2022-12-18T09:26:26;-2.60;99.90
19898;DHT22;10111;50.814;4.572;2022-12-18T09:28:52;-2.40;99.90
19898;DHT22;10111;50.814;4.572;2022-12-18T09:31:20;-2.30;99.90
19898;DHT22;10111;50.814;4.572;2022-12-18T09:33:46;-2.40;99.90
19898;DHT22;10111;50.814;4.572;2022-12-18T09:36:14;-2.20;99.90
19898;DHT22;10111;50.814;4.572;2022-12-18T09:38:40;-2.30;99.90
19898;DHT22;10111;50.814;4.572;2022-12-18T09:44:00;-2.30;99.90
19898;DHT22;10111;50.814;4.572;2022-12-18T09:46:30;-2.20;99.90
19898;DHT22;10111;50.814;4.572;2022-12-18T09:49:00;-2.20;99.90
19898;DHT22;10111;50.814;4.572;2022-12-18T09:51:32;-2.20;99.90
19898;DHT22;10111;50.814;4.572;2022-12-18T09:54:04;-2.20;99.90
19898;DHT22;10111;50.814;4.572;2022-12-18T09:56:35;-1.80;99.90
19898;DHT22;10111;50.814;4.572;2022-12-18T09:59:04;-1.30;99.90
19898;DHT22;10111;50.814;4.572;2022-12-18T10:01:32;-1.20;99.90
19898;DHT22;10111;50.814;4.572;2022-12-18T10:03:59;-1.20;99.90
19898;DHT22;10111;50.814;4.572;2022-12-18T10:09:41;-1.10;99.90
19898;DHT22;10111;50.814;4.572;2022-12-18T10:12:14;-0.90;99.90
19898;DHT22;10111;50.814;4.572;2022-12-18T10:20:52;-0.70;99.90
19898;DHT22;10111;50.814;4.572;2022-12-18T10:23:46;-0.90;99.90
19898;DHT22;10111;50.814;4.572;2022-12-18T10:26:14;-0.90;99.90
19898;DHT22;10111;50.814;4.572;2022-12-18T10:28:41;-1.00;99.90
19898;DHT22;10111;50.814;4.572;2022-12-18T10:31:18;-0.90;99.90
19898;DHT22;10111;50.814;4.572;2022-12-18T10:33:45;-0.90;99.90
19898;DHT22;10111;50.814;4.572;2022-12-18T10:36:11;-0.70;99.90
19898;DHT22;10111;50.814;4.572;2022-12-18T10:38:37;-0.50;99.90
19898;DHT22;10111;50.814;4.572;2022-12-18T10:41:24;-0.40;99.90
19898;DHT22;10111;50.814;4.572;2022-12-18T10:44:16;-0.30;99.90
19898;DHT22;10111;50.814;4.572;2022-12-18T10:46:44;-0.20;99.90
19898;DHT22;10111;50.814;4.572;2022-12-18T10:49:26;-0.10;99.90
19898;DHT22;10111;50.814;4.572;2022-12-18T10:52:22;-0.10;99.90
19898;DHT22;10111;50.814;4.572;2022-12-18T10:54:58;-0.10;99.90
19898;DHT22;10111;50.814;4.572;2022-12-18T10:59:58;0.00;99.90
19898;DHT22;10111;50.814;4.572;2022-12-18T11:02:34;0.10;99.90
19898;DHT22;10111;50.814;4.572;2022-12-18T11:05:00;0.10;99.90
19898;DHT22;10111;50.814;4.572;2022-12-18T11:07:47;0.10;99.90
19898;DHT22;10111;50.814;4.572;2022-12-18T11:10:19;0.10;99.90
19898;DHT22;10111;50.814;4.572;2022-12-18T11:12:45;0.10;99.90
19898;DHT22;10111;50.814;4.572;2022-12-18T11:15:30;0.30;99.90
19898;DHT22;10111;50.814;4.572;2022-12-18T11:17:56;0.50;99.90
19898;DHT22;10111;50.814;4.572;2022-12-18T11:20:34;0.60;99.90
19898;DHT22;10111;50.814;4.572;2022-12-18T11:23:05;0.50;99.90
19898;DHT22;10111;50.814;4.572;2022-12-18T11:25:36;0.40;99.90
19898;DHT22;10111;50.814;4.572;2022-12-18T11:28:26;0.30;99.90
19898;DHT22;10111;50.814;4.572;2022-12-18T11:31:18;0.40;99.90
19898;DHT22;10111;50.814;4.572;2022-12-18T11:34:09;0.30;99.90
19898;DHT22;10111;50.814;4.572;2022-12-18T11:36:39;0.40;99.90
19898;DHT22;10111;50.814;4.572;2022-12-18T11:39:19;0.30;99.90
19898;DHT22;10111;50.814;4.572;2022-12-18T11:41:54;0.30;99.90
19898;DHT22;10111;50.814;4.572;2022-12-18T11:44:52;0.30;99.90
19898;DHT22;10111;50.814;4.572;2022-12-18T11:47:38;0.40;99.90
19898;DHT22;10111;50.814;4.572;2022-12-18T11:50:13;0.60;99.90
19898;DHT22;10111;50.814;4.572;2022-12-18T11:52:40;0.60;99.90
19898;DHT22;10111;50.814;4.572;2022-12-18T12:00:21;0.90;99.90
19898;DHT22;10111;50.814;4.572;2022-12-18T12:09:08;0.90;99.90
19898;DHT22;10111;50.814;4.572;2022-12-18T12:13:58;1.00;99.90
19898;DHT22;10111;50.814;4.572;2022-12-18T12:17:09;1.10;99.90
19898;DHT22;10111;50.814;4.572;2022-12-18T12:22:26;1.40;99.90
19898;DHT22;10111;50.814;4.572;2022-12-18T12:35:56;1.70;99.90
19898;DHT22;10111;50.814;4.572;2022-12-18T12:38:28;1.80;99.90
19898;DHT22;10111;50.814;4.572;2022-12-18T12:41:05;1.80;99.90
19898;DHT22;10111;50.814;4.572;2022-12-18T12:43:52;1.80;99.90
19898;DHT22;10111;50.814;4.572;2022-12-18T12:46:21;1.80;99.90
19898;DHT22;10111;50.814;4.572;2022-12-18T12:48:58;2.00;99.90
19898;DHT22;10111;50.814;4.572;2022-12-18T12:51:29;1.90;99.90
19898;DHT22;10111;50.814;4.572;2022-12-18T12:53:57;1.90;99.90
19898;DHT22;10111;50.814;4.572;2022-12-18T12:56:29;1.90;99.90
19898;DHT22;10111;50.814;4.572;2022-12-18T12:59:13;1.90;99.90
19898;DHT22;10111;50.814;4.572;2022-12-18T13:01:49;2.00;99.90
19898;DHT22;10111;50.814;4.572;2022-12-18T13:05:12;2.00;99.90
19898;DHT22;10111;50.814;4.572;2022-12-18T13:07:32;1.90;99.90
19898;DHT22;10111;50.814;4.572;2022-12-18T13:12:56;2.00;99.90
19898;DHT22;10111;50.814;4.572;2022-12-18T13:15:44;2.00;99.90
19898;DHT22;10111;50.814;4.572;2022-12-18T13:36:46;2.20;99.90
19898;DHT22;10111;50.814;4.572;2022-12-18T13:41:45;2.00;99.90
19898;DHT22;10111;50.814;4.572;2022-12-18T13:46:47;2.00;99.90
19898;DHT22;10111;50.814;4.572;2022-12-18T13:51:42;2.10;99.90
19898;DHT22;10111;50.814;4.572;2022-12-18T13:56:55;2.10;99.90
19898;DHT22;10111;50.814;4.572;2022-12-18T14:01:54;2.10;99.90
19898;DHT22;10111;50.814;4.572;2022-12-18T14:04:32;2.10;99.90
19898;DHT22;10111;50.814;4.572;2022-12-18T14:09:26;2.20;99.90
19898;DHT22;10111;50.814;4.572;2022-12-18T14:11:53;2.30;99.90
19898;DHT22;10111;50.814;4.572;2022-12-18T14:14:45;2.20;99.90
19898;DHT22;10111;50.814;4.572;2022-12-18T14:17:13;2.10;99.90
19898;DHT22;10111;50.814;4.572;2022-12-18T14:19:44;2.10;99.90
19898;DHT22;10111;50.814;4.572;2022-12-18T14:22:23;2.20;99.90
19898;DHT22;10111;50.814;4.572;2022-12-18T14:25:14;1.90;99.90
19898;DHT22;10111;50.814;4.572;2022-12-18T14:27:50;1.90;99.90
19898;DHT22;10111;50.814;4.572;2022-12-18T14:35:35;1.90;99.90
19898;DHT22;10111;50.814;4.572;2022-12-18T14:40:45;2.10;99.90
19898;DHT22;10111;50.814;4.572;2022-12-18T14:43:12;2.10;99.90
19898;DHT22;10111;50.814;4.572;2022-12-18T14:45:43;2.20;99.90
19898;DHT22;10111;50.814;4.572;2022-12-18T14:48:21;2.00;99.90
19898;DHT22;10111;50.814;4.572;2022-12-18T14:50:57;2.10;99.90
19898;DHT22;10111;50.814;4.572;2022-12-18T14:56:00;2.20;99.90
19898;DHT22;10111;50.814;4.572;2022-12-18T14:58:25;2.10;99.90
19898;DHT22;10111;50.814;4.572;2022-12-18T15:00:51;2.10;99.90
19898;DHT22;10111;50.814;4.572;2022-12-18T15:03:20;2.10;99.90
19898;DHT22;10111;50.814;4.572;2022-12-18T15:05:47;2.10;99.90
19898;DHT22;10111;50.814;4.572;2022-12-18T15:08:35;2.00;99.90
19898;DHT22;10111;50.814;4.572;2022-12-18T15:11:02;1.90;99.90
19898;DHT22;10111;50.814;4.572;2022-12-18T15:13:27;2.00;99.90
19898;DHT22;10111;50.814;4.572;2022-12-18T15:15:56;2.00;99.90
19898;DHT22;10111;50.814;4.572;2022-12-18T15:18:35;2.20;99.90
19898;DHT22;10111;50.814;4.572;2022-12-18T15:21:10;2.00;99.90
19898;DHT22;10111;50.814;4.572;2022-12-18T15:23:50;2.10;99.90
19898;DHT22;10111;50.814;4.572;2022-12-18T15:26:19;2.00;99.90
19898;DHT22;10111;50.814;4.572;2022-12-18T15:28:54;1.90;99.90
19898;DHT22;10111;50.814;4.572;2022-12-18T15:31:32;1.90;99.90
19898;DHT22;10111;50.814;4.572;2022-12-18T15:34:10;2.10;99.90
19898;DHT22;10111;50.814;4.572;2022-12-18T15:36:36;2.10;99.90
19898;DHT22;10111;50.814;4.572;2022-12-18T15:39:03;2.10;99.90
19898;DHT22;10111;50.814;4.572;2022-12-18T15:41:34;2.20;99.90
19898;DHT22;10111;50.814;4.572;2022-12-18T15:44:00;2.00;99.90
19898;DHT22;10111;50.814;4.572;2022-12-18T15:46:26;2.00;99.90
19898;DHT22;10111;50.814;4.572;2022-12-18T15:48:56;1.90;99.90
19898;DHT22;10111;50.814;4.572;2022-12-18T15:51:35;2.00;99.90
19898;DHT22;10111;50.814;4.572;2022-12-18T15:54:05;1.90;99.90
19898;DHT22;10111;50.814;4.572;2022-12-18T15:56:31;2.00;99.90
19898;DHT22;10111;50.814;4.572;2022-12-18T15:59:18;2.00;99.90
19898;DHT22;10111;50.814;4.572;2022-12-18T16:01:48;2.00;99.90
19898;DHT22;10111;50.814;4.572;2022-12-18T16:04:16;2.10;99.90
19898;DHT22;10111;50.814;4.572;2022-12-18T16:06:42;2.20;99.90
19898;DHT22;10111;50.814;4.572;2022-12-18T16:09:08;2.20;99.90
19898;DHT22;10111;50.814;4.572;2022-12-18T16:11:36;2.30;99.90
19898;DHT22;10111;50.814;4.572;2022-12-18T16:14:23;2.40;99.90
19898;DHT22;10111;50.814;4.572;2022-12-18T16:16:51;2.50;99.90
19898;DHT22;10111;50.814;4.572;2022-12-18T16:19:18;2.50;99.90
19898;DHT22;10111;50.814;4.572;2022-12-18T16:21:45;2.60;99.90
19898;DHT22;10111;50.814;4.572;2022-12-18T16:24:19;2.50;99.90
19898;DHT22;10111;50.814;4.572;2022-12-18T16:26:45;2.50;99.90
19898;DHT22;10111;50.814;4.572;2022-12-18T16:29:10;2.40;99.90
19898;DHT22;10111;50.814;4.572;2022-12-18T16:31:37;2.40;99.90
19898;DHT22;10111;50.814;4.572;2022-12-18T16:36:37;2.60;99.90
19898;DHT22;10111;50.814;4.572;2022-12-18T16:39:03;2.60;99.90
19898;DHT22;10111;50.814;4.572;2022-12-18T16:41:28;2.70;99.90
19898;DHT22;10111;50.814;4.572;2022-12-18T16:44:00;2.40;99.90
19898;DHT22;10111;50.814;4.572;2022-12-18T16:46:26;2.50;99.90
19898;DHT22;10111;50.814;4.572;2022-12-18T16:48:52;2.40;99.90
19898;DHT22;10111;50.814;4.572;2022-12-18T16:51:17;2.30;99.90
19898;DHT22;10111;50.814;4.572;2022-12-18T16:53:43;2.40;99.90
19898;DHT22;10111;50.814;4.572;2022-12-18T16:56:09;2.70;99.90
19898;DHT22;10111;50.814;4.572;2022-12-18T16:58:34;2.50;99.90
19898;DHT22;10111;50.814;4.572;2022-12-18T17:01:00;2.50;99.90
19898;DHT22;10111;50.814;4.572;2022-12-18T17:03:26;2.50;99.90
19898;DHT22;10111;50.814;4.572;2022-12-18T17:05:51;2.50;99.90
19898;DHT22;10111;50.814;4.572;2022-12-18T17:08:17;2.60;99.90
19898;DHT22;10111;50.814;4.572;2022-12-18T17:10:42;2.70;99.90
19898;DHT22;10111;50.814;4.572;2022-12-18T17:13:08;2.80;99.90
19898;DHT22;10111;50.814;4.572;2022-12-18T17:15:35;2.80;99.90
19898;DHT22;10111;50.814;4.572;2022-12-18T17:18:00;2.60;99.90
19898;DHT22;10111;50.814;4.572;2022-12-18T17:20:26;2.70;99.90
19898;DHT22;10111;50.814;4.572;2022-12-18T17:22:52;2.70;99.90
19898;DHT22;10111;50.814;4.572;2022-12-18T17:25:17;2.70;99.90
19898;DHT22;10111;50.814;4.572;2022-12-18T17:27:43;2.70;99.90
19898;DHT22;10111;50.814;4.572;2022-12-18T17:30:09;2.70;99.90
19898;DHT22;10111;50.814;4.572;2022-12-18T17:32:35;2.60;99.90
19898;DHT22;10111;50.814;4.572;2022-12-18T17:35:01;2.60;99.90
19898;DHT22;10111;50.814;4.572;2022-12-18T17:37:26;2.70;99.90
19898;DHT22;10111;50.814;4.572;2022-12-18T17:39:52;2.70;99.90
19898;DHT22;10111;50.814;4.572;2022-12-18T17:42:18;2.70;99.90
19898;DHT22;10111;50.814;4.572;2022-12-18T17:44:44;2.80;99.90
19898;DHT22;10111;50.814;4.572;2022-12-18T17:47:10;2.70;99.90
19898;DHT22;10111;50.814;4.572;2022-12-18T17:49:37;2.80;99.90
19898;DHT22;10111;50.814;4.572;2022-12-18T17:52:03;2.60;99.90